Time;durP1;ratioP1;P1;durP2;ratioP2;P2;SDS_P1;SDS_P2;PMS_P1;PMS_P2;Temp;Humidity;BMP_temperature;BMP_pressure;BME280_temperature;BME280_humidity;BME280_pressure;Samples;Min_cycle;Max_cycle;Signal;HPM_P1;HPM_P2
2023/03/30 00:01:35;;;;;;;13.32;10.70;;;;;;;;;;5040746;28;20077;-76
2023/03/30 00:04:01;;;;;;;14.30;10.68;;;;;;;;;;5040094;28;20046;-76
2023/03/30 00:06:27;;;;;;;13.05;10.23;;;;;;;;;;5026191;28;20163;-76
2023/03/30 00:08:56;;;;;;;13.25;10.05;;;;;;;;;;5026341;28;20069;-76
2023/03/30 00:11:23;;;;;;;14.52;9.80;;;;;;;;;;5034081;28;20166;-76
2023/03/30 00:13:50;;;;;;;16.23;10.75;;;;;;;;;;5028589;28;20541;-76
2023/03/30 00:16:16;;;;;;;16.67;10.73;;;;;;;;;;5030394;28;20130;-76
2023/03/30 00:18:44;;;;;;;16.92;10.82;;;;;;;;;;5046234;28;20053;-76
2023/03/30 00:21:11;;;;;;;13.02;9.75;;;;;;;;;;5044157;28;20120;-76
2023/03/30 00:23:37;;;;;;;16.13;10.35;;;;;;;;;;5019786;28;20140;-76
2023/03/30 00:26:03;;;;;;;13.32;9.65;;;;;;;;;;5041664;28;20087;-76
2023/03/30 00:28:30;;;;;;;15.98;10.40;;;;;;;;;;5031765;28;20037;-76
2023/03/30 00:30:56;;;;;;;13.98;10.65;;;;;;;;;;5038107;28;20095;-76
2023/03/30 00:33:22;;;;;;;17.02;10.65;;;;;;;;;;5036045;28;20037;-76
2023/03/30 00:35:52;;;;;;;17.35;11.05;;;;;;;;;;5035787;28;20121;-76
2023/03/30 00:38:20;;;;;;;15.65;10.93;;;;;;;;;;5041989;28;20049;-76
2023/03/30 00:40:50;;;;;;;15.98;9.98;;;;;;;;;;5043221;28;20523;-76
2023/03/30 00:43:16;;;;;;;12.55;10.52;;;;;;;;;;5018797;28;20132;-76
2023/03/30 00:45:42;;;;;;;16.27;10.93;;;;;;;;;;5028623;28;20128;-76
2023/03/30 00:48:11;;;;;;;18.33;10.05;;;;;;;;;;5021229;28;20129;-76
2023/03/30 00:50:43;;;;;;;14.50;10.43;;;;;;;;;;5012319;28;20045;-76
2023/03/30 00:53:15;;;;;;;15.27;10.95;;;;;;;;;;5027604;28;20042;-76
2023/03/30 00:55:41;;;;;;;14.48;10.63;;;;;;;;;;5012685;28;20051;-76
2023/03/30 00:58:08;;;;;;;14.30;10.45;;;;;;;;;;5015081;28;20045;-76
2023/03/30 01:00:37;;;;;;;15.98;10.85;;;;;;;;;;5032659;28;20048;-76
2023/03/30 01:03:04;;;;;;;14.85;10.05;;;;;;;;;;5015259;28;20057;-76
2023/03/30 01:05:31;;;;;;;12.10;8.88;;;;;;;;;;5018096;28;20079;-76
2023/03/30 01:07:57;;;;;;;12.85;9.13;;;;;;;;;;5025116;28;20037;-76
2023/03/30 01:10:24;;;;;;;14.80;10.23;;;;;;;;;;5014553;28;20091;-76
2023/03/30 01:12:51;;;;;;;13.40;9.10;;;;;;;;;;5031606;28;20041;-76
2023/03/30 01:15:17;;;;;;;13.13;8.50;;;;;;;;;;5014699;28;20041;-77
2023/03/30 01:17:52;;;;;;;13.18;9.63;;;;;;;;;;5035544;28;20052;-77
2023/03/30 01:20:28;;;;;;;11.55;9.52;;;;;;;;;;5033882;28;20130;-77
2023/03/30 01:23:14;;;;;;;11.95;9.40;;;;;;;;;;5034078;28;20048;-77
2023/03/30 01:25:44;;;;;;;12.90;9.93;;;;;;;;;;5020858;28;20576;-77
2023/03/30 01:28:19;;;;;;;14.70;9.80;;;;;;;;;;5039647;28;20120;-77
2023/03/30 01:30:54;;;;;;;14.60;9.35;;;;;;;;;;5038916;28;20059;-77
2023/03/30 01:33:30;;;;;;;17.65;9.52;;;;;;;;;;5022410;28;20064;-77
2023/03/30 01:36:02;;;;;;;14.45;9.13;;;;;;;;;;5049522;28;20084;-77
2023/03/30 01:38:47;;;;;;;16.02;8.82;;;;;;;;;;5042116;28;20048;-77
2023/03/30 01:41:32;;;;;;;15.25;8.98;;;;;;;;;;5040103;28;20188;-76
2023/03/30 01:44:04;;;;;;;12.23;8.20;;;;;;;;;;5022164;28;20045;-76
2023/03/30 01:46:32;;;;;;;13.25;8.13;;;;;;;;;;5023920;28;20068;-76
2023/03/30 01:49:09;;;;;;;10.02;6.82;;;;;;;;;;5050205;28;20077;-76
2023/03/30 01:51:39;;;;;;;11.57;6.13;;;;;;;;;;5026245;28;20045;-76
2023/03/30 01:54:38;;;;;;;11.50;6.53;;;;;;;;;;5033964;28;20124;-77
2023/03/30 01:57:12;;;;;;;8.18;5.78;;;;;;;;;;4976866;28;20050;-77
2023/03/30 01:59:46;;;;;;;10.70;5.28;;;;;;;;;;5044134;28;20056;-77
2023/03/30 02:02:12;;;;;;;7.60;4.93;;;;;;;;;;5034966;28;20053;-77
2023/03/30 02:04:40;;;;;;;14.52;5.50;;;;;;;;;;5034522;28;20048;-76
2023/03/30 02:07:13;;;;;;;11.00;4.95;;;;;;;;;;5015663;28;20037;-76
2023/03/30 02:09:40;;;;;;;13.43;5.57;;;;;;;;;;5036767;28;20049;-77
2023/03/30 02:12:06;;;;;;;12.85;5.55;;;;;;;;;;5012047;28;20045;-77
2023/03/30 02:14:33;;;;;;;10.20;4.68;;;;;;;;;;5024994;28;20041;-76
2023/03/30 02:17:03;;;;;;;10.13;4.97;;;;;;;;;;5033534;28;20044;-76
2023/03/30 02:19:30;;;;;;;9.75;4.63;;;;;;;;;;5022122;28;20037;-77
2023/03/30 02:21:57;;;;;;;8.15;4.18;;;;;;;;;;5013514;28;20084;-77
2023/03/30 02:24:26;;;;;;;9.55;4.45;;;;;;;;;;5045837;28;20053;-76
2023/03/30 02:26:53;;;;;;;11.23;4.50;;;;;;;;;;5015141;28;20130;-77
2023/03/30 02:29:21;;;;;;;13.45;4.75;;;;;;;;;;5019165;28;20050;-77
2023/03/30 02:31:49;;;;;;;11.80;4.45;;;;;;;;;;5036166;28;20389;-76
2023/03/30 02:34:24;;;;;;;10.30;4.63;;;;;;;;;;5016463;28;20061;-77
2023/03/30 02:36:59;;;;;;;17.08;5.15;;;;;;;;;;5038471;28;20468;-77
2023/03/30 02:39:32;;;;;;;11.98;4.68;;;;;;;;;;5038563;28;20489;-77
2023/03/30 02:42:12;;;;;;;17.35;5.13;;;;;;;;;;5016837;28;20048;-77
2023/03/30 02:44:41;;;;;;;19.75;5.30;;;;;;;;;;5022545;28;20503;-76
2023/03/30 02:47:12;;;;;;;13.93;4.70;;;;;;;;;;5021296;28;20121;-77
2023/03/30 02:49:50;;;;;;;13.48;4.90;;;;;;;;;;5030144;28;20037;-77
2023/03/30 02:52:22;;;;;;;15.13;4.60;;;;;;;;;;5028439;28;20045;-77
2023/03/30 02:54:52;;;;;;;11.27;4.85;;;;;;;;;;5031947;28;20512;-77
2023/03/30 02:57:27;;;;;;;11.13;4.90;;;;;;;;;;5010438;28;20515;-77
2023/03/30 03:00:11;;;;;;;11.15;4.80;;;;;;;;;;5012068;28;20041;-77
2023/03/30 03:02:40;;;;;;;14.30;5.20;;;;;;;;;;5031459;28;20081;-77
2023/03/30 03:05:11;;;;;;;9.50;4.45;;;;;;;;;;5012282;28;20685;-77
2023/03/30 03:07:37;;;;;;;13.38;5.18;;;;;;;;;;5031095;28;20404;-77
2023/03/30 03:10:05;;;;;;;17.00;4.90;;;;;;;;;;5031435;28;20045;-77
2023/03/30 03:12:31;;;;;;;16.23;6.15;;;;;;;;;;5037416;28;20506;-77
2023/03/30 03:14:57;;;;;;;10.02;4.38;;;;;;;;;;5040209;28;20041;-77
2023/03/30 03:17:23;;;;;;;9.88;4.40;;;;;;;;;;5014938;28;20126;-77
2023/03/30 03:19:49;;;;;;;12.23;5.05;;;;;;;;;;5042113;28;20041;-77
2023/03/30 03:22:16;;;;;;;14.57;4.57;;;;;;;;;;5037826;28;20076;-77
2023/03/30 03:24:43;;;;;;;10.15;3.90;;;;;;;;;;5034668;28;20049;-77
2023/03/30 03:27:10;;;;;;;11.75;4.10;;;;;;;;;;5043746;28;20488;-77
2023/03/30 03:29:36;;;;;;;12.38;4.65;;;;;;;;;;5024983;28;20041;-77
2023/03/30 03:32:02;;;;;;;14.93;4.65;;;;;;;;;;5054246;28;20108;-77
2023/03/30 03:34:31;;;;;;;16.85;5.55;;;;;;;;;;5049156;28;20045;-76
2023/03/30 03:36:58;;;;;;;22.65;5.10;;;;;;;;;;5046592;28;20044;-77
2023/03/30 03:39:24;;;;;;;10.27;4.80;;;;;;;;;;5018357;28;20057;-77
2023/03/30 03:41:50;;;;;;;12.00;4.65;;;;;;;;;;5022951;28;20069;-76
2023/03/30 03:44:16;;;;;;;12.90;4.45;;;;;;;;;;5018507;28;20440;-76
2023/03/30 03:46:42;;;;;;;14.07;4.63;;;;;;;;;;5034671;28;20046;-76
2023/03/30 03:49:08;;;;;;;13.77;5.32;;;;;;;;;;5016825;28;20132;-76
2023/03/30 03:51:34;;;;;;;12.90;4.40;;;;;;;;;;5023989;28;20574;-76
2023/03/30 03:54:00;;;;;;;13.65;4.20;;;;;;;;;;5020741;28;20507;-77
2023/03/30 03:56:27;;;;;;;11.90;4.28;;;;;;;;;;5036875;28;20058;-77
2023/03/30 03:58:53;;;;;;;12.30;4.25;;;;;;;;;;5035523;28;20476;-77
2023/03/30 04:01:25;;;;;;;21.45;5.00;;;;;;;;;;5017960;28;20516;-77
2023/03/30 04:03:51;;;;;;;14.10;4.93;;;;;;;;;;5020611;28;20103;-77
2023/03/30 04:06:17;;;;;;;13.70;4.85;;;;;;;;;;5019412;28;20041;-77
2023/03/30 04:08:43;;;;;;;14.05;4.85;;;;;;;;;;5019954;28;20745;-77
2023/03/30 04:11:10;;;;;;;16.35;4.60;;;;;;;;;;5029358;28;20061;-77
2023/03/30 04:13:37;;;;;;;17.75;5.05;;;;;;;;;;5033168;28;20091;-76
2023/03/30 04:16:03;;;;;;;13.23;4.40;;;;;;;;;;5031210;28;20053;-77
2023/03/30 04:18:32;;;;;;;12.52;4.50;;;;;;;;;;5051886;28;20045;-77
2023/03/30 04:21:03;;;;;;;13.65;4.60;;;;;;;;;;5023251;28;20476;-77
2023/03/30 04:23:32;;;;;;;19.10;5.13;;;;;;;;;;5034616;28;20046;-77
2023/03/30 04:26:03;;;;;;;16.98;4.80;;;;;;;;;;5020492;28;20113;-77
2023/03/30 04:28:30;;;;;;;15.10;5.95;;;;;;;;;;5033666;28;20045;-77
2023/03/30 04:31:00;;;;;;;15.50;4.75;;;;;;;;;;5032840;28;20052;-77
2023/03/30 04:33:26;;;;;;;13.15;4.75;;;;;;;;;;5015345;28;20048;-77
2023/03/30 04:35:52;;;;;;;14.93;5.03;;;;;;;;;;5036398;28;20107;-77
2023/03/30 04:38:21;;;;;;;10.93;4.07;;;;;;;;;;5020806;28;20049;-77
2023/03/30 04:40:47;;;;;;;12.77;4.45;;;;;;;;;;5016048;28;20057;-77
2023/03/30 04:43:13;;;;;;;14.05;4.13;;;;;;;;;;5046683;28;20513;-77
2023/03/30 04:45:39;;;;;;;20.98;5.53;;;;;;;;;;5032211;28;21576;-77
2023/03/30 04:48:05;;;;;;;11.05;4.68;;;;;;;;;;5021854;28;20136;-76
2023/03/30 04:50:31;;;;;;;11.23;4.85;;;;;;;;;;5032450;28;20401;-77
2023/03/30 04:52:57;;;;;;;19.83;5.80;;;;;;;;;;5015546;28;20038;-77
2023/03/30 04:55:23;;;;;;;15.82;4.88;;;;;;;;;;5018950;28;20063;-77
2023/03/30 04:57:50;;;;;;;17.30;5.10;;;;;;;;;;5014380;28;20053;-77
2023/03/30 05:00:16;;;;;;;17.75;5.43;;;;;;;;;;5027581;28;20514;-77
2023/03/30 05:02:42;;;;;;;14.80;4.72;;;;;;;;;;5028872;28;20401;-77
2023/03/30 05:05:08;;;;;;;20.02;5.43;;;;;;;;;;5031621;28;20061;-77
2023/03/30 05:07:34;;;;;;;13.18;5.32;;;;;;;;;;5012201;28;20049;-77
2023/03/30 05:10:00;;;;;;;17.88;5.20;;;;;;;;;;5035914;28;20072;-77
2023/03/30 05:12:27;;;;;;;18.27;5.22;;;;;;;;;;5031285;28;20041;-77
2023/03/30 05:14:52;;;;;;;15.70;5.15;;;;;;;;;;5030271;28;20044;-77
2023/03/30 05:17:19;;;;;;;18.25;5.50;;;;;;;;;;5028492;28;20543;-77
2023/03/30 05:19:45;;;;;;;18.02;5.75;;;;;;;;;;5009788;28;20132;-77
2023/03/30 05:22:11;;;;;;;17.92;5.28;;;;;;;;;;5008601;28;20049;-77
2023/03/30 05:24:37;;;;;;;17.23;5.55;;;;;;;;;;5035563;28;20049;-77
2023/03/30 05:27:04;;;;;;;20.90;5.40;;;;;;;;;;5014958;28;20049;-77
2023/03/30 05:29:30;;;;;;;18.70;4.28;;;;;;;;;;5023934;28;20071;-77
2023/03/30 05:31:56;;;;;;;16.73;4.88;;;;;;;;;;5024319;28;20052;-77
2023/03/30 05:34:22;;;;;;;16.85;5.30;;;;;;;;;;5028510;28;20041;-77
2023/03/30 05:36:49;;;;;;;17.20;6.30;;;;;;;;;;5040461;28;20067;-78
2023/03/30 05:39:15;;;;;;;17.15;4.45;;;;;;;;;;5038588;28;20063;-78
2023/03/30 05:41:41;;;;;;;14.45;4.60;;;;;;;;;;5026843;28;20109;-77
2023/03/30 05:44:07;;;;;;;11.27;4.00;;;;;;;;;;5035413;28;20115;-77
2023/03/30 05:46:33;;;;;;;9.90;3.95;;;;;;;;;;5017457;28;20048;-77
2023/03/30 05:48:59;;;;;;;16.27;4.80;;;;;;;;;;5040002;28;20040;-78
2023/03/30 05:51:26;;;;;;;17.48;4.72;;;;;;;;;;5037790;28;20049;-80
2023/03/30 05:53:52;;;;;;;13.73;4.28;;;;;;;;;;5036563;28;20037;-79
2023/03/30 05:56:18;;;;;;;17.77;4.85;;;;;;;;;;5019461;28;20099;-79
2023/03/30 05:58:44;;;;;;;17.38;4.78;;;;;;;;;;5027420;28;20397;-79
2023/03/30 06:01:12;;;;;;;17.23;4.80;;;;;;;;;;5043040;28;20059;-79
2023/03/30 06:03:38;;;;;;;11.02;4.28;;;;;;;;;;5017945;28;20124;-79
2023/03/30 06:06:05;;;;;;;17.25;5.07;;;;;;;;;;5009360;28;20405;-79
2023/03/30 06:08:31;;;;;;;21.27;5.28;;;;;;;;;;5017801;28;20511;-79
2023/03/30 06:10:57;;;;;;;16.77;4.28;;;;;;;;;;5036417;28;20511;-80
2023/03/30 06:13:24;;;;;;;14.68;4.68;;;;;;;;;;5045420;28;20135;-80
2023/03/30 06:15:50;;;;;;;12.88;4.40;;;;;;;;;;5042357;28;20113;-79
2023/03/30 06:18:16;;;;;;;16.67;4.43;;;;;;;;;;5020334;28;20053;-79
2023/03/30 06:20:42;;;;;;;20.38;5.60;;;;;;;;;;5037100;28;20081;-79
2023/03/30 06:23:08;;;;;;;23.40;4.78;;;;;;;;;;5030907;28;20049;-79
2023/03/30 06:25:35;;;;;;;16.38;4.72;;;;;;;;;;5013844;28;20490;-79
2023/03/30 06:28:02;;;;;;;21.48;4.95;;;;;;;;;;5015993;28;20041;-79
2023/03/30 06:30:28;;;;;;;16.48;4.70;;;;;;;;;;5018868;28;20057;-78
2023/03/30 06:32:54;;;;;;;25.00;5.28;;;;;;;;;;5015230;28;20038;-78
2023/03/30 06:35:21;;;;;;;20.08;5.88;;;;;;;;;;5027572;28;20544;-78
2023/03/30 06:37:47;;;;;;;23.65;5.82;;;;;;;;;;5015068;28;20053;-78
2023/03/30 06:40:13;;;;;;;18.42;5.47;;;;;;;;;;5015416;28;20099;-79
2023/03/30 06:42:40;;;;;;;17.55;5.63;;;;;;;;;;5023588;28;20060;-79
2023/03/30 06:45:07;;;;;;;14.35;4.70;;;;;;;;;;5041665;28;20049;-78
2023/03/30 06:47:33;;;;;;;23.15;6.50;;;;;;;;;;5016865;28;20049;-78
2023/03/30 06:49:59;;;;;;;19.65;5.57;;;;;;;;;;5037344;28;20046;-79
2023/03/30 06:52:25;;;;;;;24.42;6.38;;;;;;;;;;5042740;28;20045;-78
2023/03/30 06:54:51;;;;;;;21.80;5.65;;;;;;;;;;5037100;28;20045;-78
2023/03/30 06:57:17;;;;;;;19.25;5.15;;;;;;;;;;5036292;28;20061;-78
2023/03/30 06:59:43;;;;;;;23.23;6.20;;;;;;;;;;5033636;28;20048;-78
2023/03/30 07:02:15;;;;;;;27.40;6.47;;;;;;;;;;5016497;28;20055;-79
2023/03/30 07:04:41;;;;;;;29.02;6.25;;;;;;;;;;5022068;28;20049;-78
2023/03/30 07:07:07;;;;;;;23.17;5.57;;;;;;;;;;5037448;28;20424;-79
2023/03/30 07:09:33;;;;;;;24.23;5.55;;;;;;;;;;5047254;28;20049;-78
2023/03/30 07:11:59;;;;;;;20.98;5.53;;;;;;;;;;5013229;28;20056;-78
2023/03/30 07:14:26;;;;;;;26.85;6.15;;;;;;;;;;5013225;28;20041;-79
2023/03/30 07:16:52;;;;;;;15.77;5.15;;;;;;;;;;5013638;28;20132;-79
2023/03/30 07:19:18;;;;;;;24.35;5.32;;;;;;;;;;5017325;28;20045;-79
2023/03/30 07:21:44;;;;;;;21.08;6.13;;;;;;;;;;5050796;28;20408;-79
2023/03/30 07:24:10;;;;;;;35.83;6.38;;;;;;;;;;5047197;28;20072;-79
2023/03/30 07:26:36;;;;;;;28.17;6.28;;;;;;;;;;5024399;28;20050;-78
2023/03/30 07:29:04;;;;;;;25.33;6.20;;;;;;;;;;5016571;28;20523;-79
2023/03/30 07:31:30;;;;;;;22.17;5.85;;;;;;;;;;5017320;28;20143;-79
2023/03/30 07:33:56;;;;;;;29.08;6.80;;;;;;;;;;5026909;28;20038;-79
2023/03/30 07:36:22;;;;;;;30.00;6.68;;;;;;;;;;5042927;28;20044;-78
2023/03/30 07:38:48;;;;;;;23.23;6.65;;;;;;;;;;5043491;28;20071;-79
2023/03/30 07:41:16;;;;;;;27.33;6.20;;;;;;;;;;5033508;28;20049;-79
2023/03/30 07:43:42;;;;;;;28.48;6.18;;;;;;;;;;5031009;28;20493;-78
2023/03/30 07:46:10;;;;;;;23.45;5.35;;;;;;;;;;5048237;28;20500;-80
2023/03/30 07:48:36;;;;;;;26.10;7.03;;;;;;;;;;5033807;28;20499;-80
2023/03/30 07:51:08;;;;;;;26.88;5.88;;;;;;;;;;5049398;28;20045;-78
2023/03/30 07:53:34;;;;;;;30.30;6.10;;;;;;;;;;5039491;28;20041;-79
2023/03/30 07:56:00;;;;;;;27.00;7.15;;;;;;;;;;5010853;28;20283;-79
2023/03/30 07:58:26;;;;;;;30.05;6.10;;;;;;;;;;5014971;28;20053;-79
2023/03/30 08:00:52;;;;;;;30.10;6.53;;;;;;;;;;5028167;28;20037;-79
2023/03/30 08:03:20;;;;;;;29.25;6.80;;;;;;;;;;5026782;28;20048;-79
2023/03/30 08:05:58;;;;;;;33.15;7.88;;;;;;;;;;5048642;28;20059;-79
2023/03/30 08:08:24;;;;;;;32.92;8.85;;;;;;;;;;5046874;28;20072;-79
2023/03/30 08:10:51;;;;;;;31.27;6.88;;;;;;;;;;5024320;28;20053;-79
2023/03/30 08:13:17;;;;;;;34.17;6.22;;;;;;;;;;5036170;28;20674;-80
2023/03/30 08:15:43;;;;;;;30.20;6.80;;;;;;;;;;5021999;28;20056;-80
2023/03/30 08:18:11;;;;;;;33.25;6.75;;;;;;;;;;5017221;28;20049;-79
2023/03/30 08:20:39;;;;;;;29.67;7.32;;;;;;;;;;5014198;28;20080;-80
2023/03/30 08:23:05;;;;;;;28.00;6.85;;;;;;;;;;5010452;28;20054;-79
2023/03/30 08:25:31;;;;;;;24.08;6.47;;;;;;;;;;5031180;28;20061;-79
2023/03/30 08:27:57;;;;;;;26.73;5.78;;;;;;;;;;5008919;28;20504;-78
2023/03/30 08:30:23;;;;;;;23.65;5.53;;;;;;;;;;5037385;28;20041;-79
2023/03/30 08:32:50;;;;;;;31.45;6.68;;;;;;;;;;5035512;28;20098;-80
2023/03/30 08:35:16;;;;;;;31.98;7.18;;;;;;;;;;5015179;28;20061;-79
2023/03/30 08:37:43;;;;;;;33.72;7.68;;;;;;;;;;5037792;28;20037;-79
2023/03/30 08:40:11;;;;;;;30.23;7.35;;;;;;;;;;5036843;28;20040;-79
2023/03/30 08:42:40;;;;;;;26.75;6.75;;;;;;;;;;5035470;28;20431;-79
2023/03/30 08:45:09;;;;;;;23.13;5.82;;;;;;;;;;5016229;28;20114;-79
2023/03/30 08:47:38;;;;;;;29.67;5.68;;;;;;;;;;5025812;28;20037;-79
2023/03/30 08:50:12;;;;;;;29.35;6.68;;;;;;;;;;5034982;28;20645;-79
2023/03/30 08:52:40;;;;;;;33.25;6.82;;;;;;;;;;5035442;28;20068;-79
2023/03/30 08:55:15;;;;;;;24.15;7.43;;;;;;;;;;5015545;28;20137;-79
2023/03/30 08:57:57;;;;;;;23.20;5.43;;;;;;;;;;5016403;28;20045;-79
2023/03/30 09:00:40;;;;;;;25.45;6.80;;;;;;;;;;5031080;28;20049;-79
2023/03/30 09:03:11;;;;;;;31.67;6.35;;;;;;;;;;5028594;28;20073;-79
2023/03/30 09:05:42;;;;;;;25.80;5.90;;;;;;;;;;5018321;28;20075;-80
2023/03/30 09:08:18;;;;;;;23.70;5.55;;;;;;;;;;5031509;28;20049;-80
2023/03/30 09:10:47;;;;;;;22.65;5.78;;;;;;;;;;5008938;28;20057;-79
2023/03/30 09:13:15;;;;;;;27.50;6.93;;;;;;;;;;5036078;28;20461;-80
2023/03/30 09:15:45;;;;;;;21.27;5.55;;;;;;;;;;5023436;28;20087;-80
2023/03/30 09:18:11;;;;;;;17.35;4.70;;;;;;;;;;5045195;28;20063;-80
2023/03/30 09:20:39;;;;;;;24.25;6.40;;;;;;;;;;5021752;28;20144;-79
2023/03/30 09:23:08;;;;;;;24.73;5.40;;;;;;;;;;5035549;28;20045;-79
2023/03/30 09:25:52;;;;;;;24.73;5.60;;;;;;;;;;5019738;28;20053;-79
2023/03/30 09:28:37;;;;;;;30.30;6.53;;;;;;;;;;5013422;28;20103;-78
2023/03/30 09:31:03;;;;;;;23.98;6.15;;;;;;;;;;5022399;28;20412;-79
2023/03/30 09:33:48;;;;;;;25.45;5.57;;;;;;;;;;5023480;28;20041;-78
2023/03/30 09:36:32;;;;;;;27.05;6.55;;;;;;;;;;5024107;28;20106;-78
2023/03/30 09:38:58;;;;;;;;;;;;;;;;;;5014957;28;20138;-78
2023/03/30 09:41:31;;;;;;;19.40;5.88;;;;;;;;;;5051397;28;19937;-78
2023/03/30 09:43:57;;;;;;;;;;;;;;;;;;5033139;28;20120;-78
2023/03/30 09:46:23;;;;;;;26.77;5.72;;;;;;;;;;5014305;28;20003;-78
2023/03/30 09:48:50;;;;;;;21.63;5.35;;;;;;;;;;5030470;28;20109;-78
2023/03/30 09:51:20;;;;;;;29.45;5.65;;;;;;;;;;5050238;28;20049;-79
2023/03/30 09:53:48;;;;;;;23.48;5.68;;;;;;;;;;5044446;28;20037;-78
2023/03/30 09:56:26;;;;;;;29.30;6.53;;;;;;;;;;5031531;28;20056;-79
2023/03/30 09:58:52;;;;;;;30.45;7.53;;;;;;;;;;5029595;28;20041;-78
2023/03/30 10:01:19;;;;;;;30.20;6.30;;;;;;;;;;5024854;28;20045;-78
2023/03/30 10:04:04;;;;;;;24.00;5.75;;;;;;;;;;5031593;28;20045;-79
2023/03/30 10:06:31;;;;;;;38.03;8.40;;;;;;;;;;5042294;28;20588;-79
2023/03/30 10:08:57;;;;;;;25.25;6.20;;;;;;;;;;5044412;28;20041;-79
2023/03/30 10:11:35;;;;;;;29.80;6.28;;;;;;;;;;5034546;28;20048;-78
2023/03/30 10:14:01;;;;;;;23.02;5.80;;;;;;;;;;5037597;28;20071;-79
2023/03/30 10:16:31;;;;;;;29.15;6.75;;;;;;;;;;5039994;28;20420;-79
2023/03/30 10:19:01;;;;;;;28.90;7.05;;;;;;;;;;5041729;28;20045;-79
2023/03/30 10:21:29;;;;;;;31.85;6.65;;;;;;;;;;5021739;28;20053;-79
2023/03/30 10:24:14;;;;;;;29.42;6.78;;;;;;;;;;5017920;28;20045;-80
2023/03/30 10:26:44;;;;;;;29.73;7.05;;;;;;;;;;5014173;28;20451;-79
2023/03/30 10:29:12;;;;;;;30.90;8.15;;;;;;;;;;5018346;28;20042;-79
2023/03/30 10:31:42;;;;;;;24.55;6.55;;;;;;;;;;5036518;28;20048;-79
2023/03/30 10:34:15;;;;;;;31.98;6.72;;;;;;;;;;5015994;28;20107;-79
2023/03/30 10:36:41;;;;;;;32.78;7.10;;;;;;;;;;5044175;28;20037;-79
2023/03/30 10:39:11;;;;;;;27.38;6.95;;;;;;;;;;5041536;28;20037;-79
2023/03/30 10:41:38;;;;;;;31.92;7.65;;;;;;;;;;5040007;28;20430;-79
2023/03/30 10:44:16;;;;;;;32.40;7.07;;;;;;;;;;5032127;28;20056;-79
2023/03/30 10:46:42;;;;;;;28.48;7.38;;;;;;;;;;5038353;28;20049;-79
2023/03/30 10:49:17;;;;;;;25.40;6.07;;;;;;;;;;5044615;28;20041;-79
2023/03/30 10:51:46;;;;;;;30.27;6.80;;;;;;;;;;5041197;28;20033;-78
2023/03/30 10:54:22;;;;;;;29.98;7.20;;;;;;;;;;5027122;28;20058;-80
2023/03/30 10:56:54;;;;;;;27.67;6.93;;;;;;;;;;5013720;28;20065;-80
2023/03/30 10:59:23;;;;;;;26.77;6.47;;;;;;;;;;5016650;28;20045;-79
2023/03/30 11:01:49;;;;;;;27.67;6.93;;;;;;;;;;5008407;28;20111;-79
2023/03/30 11:04:18;;;;;;;26.00;7.03;;;;;;;;;;5014071;28;20048;-80
2023/03/30 11:06:44;;;;;;;28.05;6.68;;;;;;;;;;5038106;28;20047;-80
2023/03/30 11:09:15;;;;;;;24.20;7.28;;;;;;;;;;5035027;28;20465;-80
2023/03/30 11:11:48;;;;;;;30.63;7.22;;;;;;;;;;5018536;28;20401;-79
2023/03/30 11:14:18;;;;;;;33.28;7.32;;;;;;;;;;5031497;28;20113;-79
2023/03/30 11:16:49;;;;;;;28.67;7.57;;;;;;;;;;5013126;28;20057;-80
2023/03/30 11:19:37;;;;;;;30.80;7.72;;;;;;;;;;5035349;28;20084;-80
2023/03/30 11:22:22;;;;;;;26.15;5.90;;;;;;;;;;5015979;28;20128;-80
2023/03/30 11:24:50;;;;;;;34.53;7.32;;;;;;;;;;5014170;28;20068;-80
2023/03/30 11:27:29;;;;;;;27.05;6.55;;;;;;;;;;5035527;28;20041;-80
2023/03/30 11:30:03;;;;;;;22.95;6.35;;;;;;;;;;5039260;28;20095;-80
2023/03/30 11:32:29;;;;;;;27.17;6.70;;;;;;;;;;5017857;28;20888;-81
2023/03/30 11:35:05;;;;;;;27.27;7.00;;;;;;;;;;5036547;28;20080;-80
2023/03/30 11:37:38;;;;;;;30.88;7.50;;;;;;;;;;5038627;28;20100;-80
2023/03/30 11:40:12;;;;;;;27.23;7.50;;;;;;;;;;5048865;28;20037;-80
2023/03/30 11:42:39;;;;;;;28.70;7.65;;;;;;;;;;5042915;28;20507;-80
2023/03/30 11:45:16;;;;;;;29.38;7.18;;;;;;;;;;5043334;28;20045;-80
2023/03/30 11:48:00;;;;;;;34.67;7.75;;;;;;;;;;5029511;28;20179;-79
2023/03/30 11:50:32;;;;;;;32.95;7.13;;;;;;;;;;5039497;28;20049;-79
2023/03/30 11:53:01;;;;;;;33.08;7.07;;;;;;;;;;5025239;28;20474;-79
2023/03/30 11:55:47;;;;;;;31.08;7.18;;;;;;;;;;5023308;28;20061;-80
2023/03/30 11:58:34;;;;;;;32.05;7.22;;;;;;;;;;5030964;28;20042;-79
2023/03/30 12:01:05;;;;;;;29.63;7.88;;;;;;;;;;5039061;28;20088;-79
2023/03/30 12:03:38;;;;;;;37.30;8.63;;;;;;;;;;5046741;28;20037;-79
2023/03/30 12:06:05;;;;;;;;;;;;;;;;;;5034111;28;20040;-80
2023/03/30 12:08:50;;;;;;;33.40;7.85;;;;;;;;;;5018548;28;19921;-79
2023/03/30 12:11:36;;;;;;;28.98;6.40;;;;;;;;;;5047877;28;20052;-79
2023/03/30 12:14:02;;;;;;;42.85;8.85;;;;;;;;;;5019967;28;20481;-79
2023/03/30 12:16:32;;;;;;;33.85;7.90;;;;;;;;;;5024660;28;20566;-79
2023/03/30 12:19:07;;;;;;;21.23;6.72;;;;;;;;;;5042812;28;20362;-78
2023/03/30 12:21:51;;;;;;;36.45;8.23;;;;;;;;;;5042409;28;20057;-79
2023/03/30 12:24:16;;;;;;;;;;;;;;;;;;5042246;28;20114;-80
2023/03/30 12:26:43;;;;;;;34.38;6.95;;;;;;;;;;5029253;28;20380;-79
2023/03/30 12:29:14;;;;;;;31.42;7.63;;;;;;;;;;5027389;28;20041;-79
2023/03/30 12:31:54;;;;;;;34.22;7.65;;;;;;;;;;5019947;28;20063;-79
2023/03/30 12:34:21;;;;;;;33.10;7.82;;;;;;;;;;5020212;28;20060;-79
2023/03/30 12:36:48;;;;;;;30.35;6.78;;;;;;;;;;5031638;28;20064;-79
2023/03/30 12:39:35;;;;;;;38.30;8.20;;;;;;;;;;5042575;28;21150;-79
2023/03/30 12:42:06;;;;;;;31.52;7.90;;;;;;;;;;5025076;28;20037;-79
2023/03/30 12:44:34;;;;;;;29.73;8.00;;;;;;;;;;5044870;28;20124;-79
2023/03/30 12:47:19;;;;;;;26.15;7.38;;;;;;;;;;5025838;28;20172;-79
2023/03/30 12:50:01;;;;;;;28.25;7.47;;;;;;;;;;5017038;28;20049;-79
2023/03/30 12:52:35;;;;;;;32.72;7.22;;;;;;;;;;5047650;28;22071;-79
2023/03/30 12:55:01;;;;;;;37.35;8.15;;;;;;;;;;5038688;28;20061;-79
2023/03/30 12:57:32;;;;;;;36.85;8.45;;;;;;;;;;5042506;28;20045;-79
2023/03/30 12:59:58;;;;;;;30.63;7.97;;;;;;;;;;5025830;28;20381;-79
2023/03/30 13:02:43;;;;;;;32.75;8.45;;;;;;;;;;5026090;28;20041;-79
2023/03/30 13:05:26;;;;;;;32.42;7.20;;;;;;;;;;5044696;28;20048;-80
2023/03/30 13:07:54;;;;;;;31.42;7.60;;;;;;;;;;5038798;28;20128;-79
2023/03/30 13:10:29;;;;;;;32.80;7.20;;;;;;;;;;5021857;28;20048;-80
2023/03/30 13:13:01;;;;;;;29.92;7.70;;;;;;;;;;5027689;28;20084;-78
2023/03/30 13:15:39;;;;;;;29.67;7.55;;;;;;;;;;5038917;28;20047;-79
2023/03/30 13:18:08;;;;;;;34.47;7.35;;;;;;;;;;5045163;28;20159;-79
2023/03/30 13:20:57;;;;;;;27.63;7.35;;;;;;;;;;5029505;28;20048;-78
2023/03/30 13:23:30;;;;;;;31.17;7.53;;;;;;;;;;5015533;28;20788;-79
2023/03/30 13:26:02;;;;;;;36.80;8.93;;;;;;;;;;5037986;28;20041;-79
2023/03/30 13:28:31;;;;;;;29.10;7.03;;;;;;;;;;5019426;28;20067;-78
2023/03/30 13:31:01;;;;;;;34.28;8.63;;;;;;;;;;5026737;28;20092;-79
2023/03/30 13:33:28;;;;;;;27.90;7.75;;;;;;;;;;5015895;28;20103;-79
2023/03/30 13:35:56;;;;;;;24.85;6.53;;;;;;;;;;5020677;28;20084;-79
2023/03/30 13:38:24;;;;;;;29.67;6.80;;;;;;;;;;5034523;28;20095;-79
2023/03/30 13:40:53;;;;;;;31.33;7.35;;;;;;;;;;5015987;28;20434;-79
2023/03/30 13:43:38;;;;;;;35.03;8.18;;;;;;;;;;5032855;28;20088;-79
2023/03/30 13:46:08;;;;;;;24.55;6.78;;;;;;;;;;5014543;28;20065;-79
2023/03/30 13:48:43;;;;;;;26.42;7.53;;;;;;;;;;5032954;28;20045;-79
2023/03/30 13:51:12;;;;;;;34.53;9.27;;;;;;;;;;5034715;28;20045;-80
2023/03/30 13:53:43;;;;;;;26.17;6.68;;;;;;;;;;5015257;28;20045;-79
2023/03/30 13:56:10;;;;;;;30.88;7.32;;;;;;;;;;5014843;28;20057;-79
2023/03/30 13:58:36;;;;;;;31.85;7.28;;;;;;;;;;5013529;28;20052;-79
2023/03/30 14:01:06;;;;;;;26.40;7.07;;;;;;;;;;5037730;28;20053;-79
2023/03/30 14:03:43;;;;;;;32.63;7.50;;;;;;;;;;5046230;28;20072;-80
2023/03/30 14:06:22;;;;;;;34.88;7.90;;;;;;;;;;5043190;28;20489;-79
2023/03/30 14:08:49;;;;;;;31.60;7.95;;;;;;;;;;5037675;28;20045;-80
2023/03/30 14:11:15;;;;;;;32.83;8.20;;;;;;;;;;5015352;28;20064;-79
2023/03/30 14:13:42;;;;;;;31.88;7.63;;;;;;;;;;5046035;28;20044;-79
2023/03/30 14:16:17;;;;;;;35.47;7.90;;;;;;;;;;5033685;28;20037;-80
2023/03/30 14:18:44;;;;;;;36.35;8.82;;;;;;;;;;5038726;28;20045;-79
2023/03/30 14:21:12;;;;;;;29.05;8.60;;;;;;;;;;5020879;28;20492;-80
2023/03/30 14:23:40;;;;;;;40.55;9.20;;;;;;;;;;5034951;28;20041;-80
2023/03/30 14:26:12;;;;;;;25.95;6.90;;;;;;;;;;5038562;28;20099;-80
2023/03/30 14:28:41;;;;;;;35.03;8.95;;;;;;;;;;5048234;28;20552;-80
2023/03/30 14:31:20;;;;;;;37.58;9.35;;;;;;;;;;5022171;28;20052;-80
2023/03/30 14:33:46;;;;;;;36.97;8.27;;;;;;;;;;5036926;28;20402;-80
2023/03/30 14:36:19;;;;;;;40.53;7.68;;;;;;;;;;5020172;28;20045;-79
2023/03/30 14:38:46;;;;;;;35.28;8.20;;;;;;;;;;5031160;28;20053;-79
2023/03/30 14:41:21;;;;;;;39.25;9.93;;;;;;;;;;5037363;28;20140;-80
2023/03/30 14:43:58;;;;;;;31.80;7.88;;;;;;;;;;5014749;28;20072;-79
2023/03/30 14:46:27;;;;;;;33.08;8.20;;;;;;;;;;5034562;28;20060;-80